sensor_id;sensor_type;location;lat;lon;timestamp;P1;durP1;ratioP1;P2;durP2;ratioP2
7324;SDS011;3703;48.016;7.802;2023-04-25T00:01:58;3.80;;;3.40;;
7324;SDS011;3703;48.016;7.802;2023-04-25T00:04:46;3.87;;;3.10;;
7324;SDS011;3703;48.016;7.802;2023-04-25T00:07:36;5.43;;;3.07;;
7324;SDS011;3703;48.016;7.802;2023-04-25T00:10:24;3.93;;;2.97;;
7324;SDS011;3703;48.016;7.802;2023-04-25T00:13:11;4.40;;;3.07;;
7324;SDS011;3703;48.016;7.802;2023-04-25T00:16:00;3.50;;;3.20;;
7324;SDS011;3703;48.016;7.802;2023-04-25T00:18:48;3.43;;;3.00;;
7324;SDS011;3703;48.016;7.802;2023-04-25T00:21:39;6.53;;;2.50;;
7324;SDS011;3703;48.016;7.802;2023-04-25T00:24:28;4.20;;;3.20;;
7324;SDS011;3703;48.016;7.802;2023-04-25T00:27:15;6.87;;;3.53;;
7324;SDS011;3703;48.016;7.802;2023-04-25T00:30:03;4.53;;;2.97;;
7324;SDS011;3703;48.016;7.802;2023-04-25T00:32:52;4.83;;;2.67;;
7324;SDS011;3703;48.016;7.802;2023-04-25T00:35:40;5.20;;;3.13;;
7324;SDS011;3703;48.016;7.802;2023-04-25T00:38:27;5.47;;;3.60;;
7324;SDS011;3703;48.016;7.802;2023-04-25T00:41:16;6.13;;;3.67;;
7324;SDS011;3703;48.016;7.802;2023-04-25T00:44:05;5.53;;;2.83;;
7324;SDS011;3703;48.016;7.802;2023-04-25T00:46:56;6.03;;;3.73;;
7324;SDS011;3703;48.016;7.802;2023-04-25T00:49:44;4.07;;;3.30;;
7324;SDS011;3703;48.016;7.802;2023-04-25T00:52:32;5.17;;;3.50;;
7324;SDS011;3703;48.016;7.802;2023-04-25T00:55:19;5.53;;;3.57;;
7324;SDS011;3703;48.016;7.802;2023-04-25T00:58:08;4.50;;;3.57;;
7324;SDS011;3703;48.016;7.802;2023-04-25T01:00:56;6.27;;;3.53;;
7324;SDS011;3703;48.016;7.802;2023-04-25T01:03:45;6.47;;;3.20;;
7324;SDS011;3703;48.016;7.802;2023-04-25T01:06:35;4.60;;;3.50;;
7324;SDS011;3703;48.016;7.802;2023-04-25T01:09:22;4.30;;;3.40;;
7324;SDS011;3703;48.016;7.802;2023-04-25T01:12:10;6.97;;;3.90;;
7324;SDS011;3703;48.016;7.802;2023-04-25T01:15:01;5.63;;;3.67;;
7324;SDS011;3703;48.016;7.802;2023-04-25T01:17:49;5.67;;;3.90;;
7324;SDS011;3703;48.016;7.802;2023-04-25T01:20:36;5.87;;;4.00;;
7324;SDS011;3703;48.016;7.802;2023-04-25T01:23:26;4.87;;;3.83;;
7324;SDS011;3703;48.016;7.802;2023-04-25T01:26:14;4.93;;;3.83;;
7324;SDS011;3703;48.016;7.802;2023-04-25T01:29:03;6.40;;;3.47;;
7324;SDS011;3703;48.016;7.802;2023-04-25T01:31:51;6.67;;;4.03;;
7324;SDS011;3703;48.016;7.802;2023-04-25T01:34:39;6.27;;;4.20;;
7324;SDS011;3703;48.016;7.802;2023-04-25T01:37:27;5.57;;;3.47;;
7324;SDS011;3703;48.016;7.802;2023-04-25T01:40:16;7.07;;;4.33;;
7324;SDS011;3703;48.016;7.802;2023-04-25T01:43:05;6.07;;;3.67;;
7324;SDS011;3703;48.016;7.802;2023-04-25T01:45:53;7.13;;;3.90;;
7324;SDS011;3703;48.016;7.802;2023-04-25T01:48:42;7.13;;;3.97;;
7324;SDS011;3703;48.016;7.802;2023-04-25T01:51:30;8.30;;;3.53;;
7324;SDS011;3703;48.016;7.802;2023-04-25T01:54:18;6.60;;;4.03;;
7324;SDS011;3703;48.016;7.802;2023-04-25T01:57:07;8.30;;;3.97;;
7324;SDS011;3703;48.016;7.802;2023-04-25T01:59:55;4.83;;;3.87;;
7324;SDS011;3703;48.016;7.802;2023-04-25T02:02:46;4.77;;;3.80;;
7324;SDS011;3703;48.016;7.802;2023-04-25T02:05:36;5.00;;;3.30;;
7324;SDS011;3703;48.016;7.802;2023-04-25T02:08:24;7.20;;;3.50;;
7324;SDS011;3703;48.016;7.802;2023-04-25T02:11:12;13.40;;;4.13;;
7324;SDS011;3703;48.016;7.802;2023-04-25T02:14:01;5.23;;;3.57;;
7324;SDS011;3703;48.016;7.802;2023-04-25T02:16:48;6.03;;;3.53;;
7324;SDS011;3703;48.016;7.802;2023-04-25T02:19:36;6.70;;;3.63;;
7324;SDS011;3703;48.016;7.802;2023-04-25T02:22:24;5.43;;;3.63;;
7324;SDS011;3703;48.016;7.802;2023-04-25T02:25:12;7.50;;;3.83;;
7324;SDS011;3703;48.016;7.802;2023-04-25T02:28:01;4.30;;;3.27;;
7324;SDS011;3703;48.016;7.802;2023-04-25T02:30:50;5.53;;;3.37;;
7324;SDS011;3703;48.016;7.802;2023-04-25T02:33:37;5.70;;;3.70;;
7324;SDS011;3703;48.016;7.802;2023-04-25T02:36:25;4.90;;;3.43;;
7324;SDS011;3703;48.016;7.802;2023-04-25T02:39:13;8.60;;;4.13;;
7324;SDS011;3703;48.016;7.802;2023-04-25T02:42:00;5.73;;;3.47;;
7324;SDS011;3703;48.016;7.802;2023-04-25T02:44:48;6.10;;;3.50;;
7324;SDS011;3703;48.016;7.802;2023-04-25T02:47:37;6.97;;;4.23;;
7324;SDS011;3703;48.016;7.802;2023-04-25T02:50:24;5.23;;;3.27;;
7324;SDS011;3703;48.016;7.802;2023-04-25T02:53:12;7.77;;;4.20;;
7324;SDS011;3703;48.016;7.802;2023-04-25T02:55:59;6.93;;;3.13;;
7324;SDS011;3703;48.016;7.802;2023-04-25T02:58:47;5.93;;;3.57;;
7324;SDS011;3703;48.016;7.802;2023-04-25T03:01:35;7.03;;;3.90;;
7324;SDS011;3703;48.016;7.802;2023-04-25T03:04:24;5.37;;;4.00;;
7324;SDS011;3703;48.016;7.802;2023-04-25T03:07:11;7.00;;;3.83;;
7324;SDS011;3703;48.016;7.802;2023-04-25T03:09:59;5.67;;;3.73;;
7324;SDS011;3703;48.016;7.802;2023-04-25T03:12:46;5.97;;;3.87;;
7324;SDS011;3703;48.016;7.802;2023-04-25T03:15:34;6.30;;;3.67;;
7324;SDS011;3703;48.016;7.802;2023-04-25T03:18:21;4.73;;;3.53;;
7324;SDS011;3703;48.016;7.802;2023-04-25T03:21:10;6.50;;;3.63;;
7324;SDS011;3703;48.016;7.802;2023-04-25T03:23:58;5.80;;;3.47;;
7324;SDS011;3703;48.016;7.802;2023-04-25T03:26:47;7.47;;;3.50;;
7324;SDS011;3703;48.016;7.802;2023-04-25T03:29:34;5.57;;;4.23;;
7324;SDS011;3703;48.016;7.802;2023-04-25T03:32:22;4.70;;;3.23;;
7324;SDS011;3703;48.016;7.802;2023-04-25T03:35:09;5.33;;;3.37;;
7324;SDS011;3703;48.016;7.802;2023-04-25T03:37:58;5.43;;;3.23;;
7324;SDS011;3703;48.016;7.802;2023-04-25T03:40:46;4.83;;;3.40;;
7324;SDS011;3703;48.016;7.802;2023-04-25T03:43:33;5.73;;;3.23;;
7324;SDS011;3703;48.016;7.802;2023-04-25T03:46:21;4.07;;;3.67;;
7324;SDS011;3703;48.016;7.802;2023-04-25T03:49:08;7.77;;;3.27;;
7324;SDS011;3703;48.016;7.802;2023-04-25T03:51:56;5.43;;;3.17;;
7324;SDS011;3703;48.016;7.802;2023-04-25T03:54:45;7.67;;;4.00;;
7324;SDS011;3703;48.016;7.802;2023-04-25T03:57:32;6.60;;;3.50;;
7324;SDS011;3703;48.016;7.802;2023-04-25T04:00:20;5.73;;;3.23;;
7324;SDS011;3703;48.016;7.802;2023-04-25T04:03:07;5.10;;;3.53;;
7324;SDS011;3703;48.016;7.802;2023-04-25T04:05:56;4.43;;;2.97;;
7324;SDS011;3703;48.016;7.802;2023-04-25T04:08:44;5.63;;;3.53;;
7324;SDS011;3703;48.016;7.802;2023-04-25T04:11:33;6.90;;;3.93;;
7324;SDS011;3703;48.016;7.802;2023-04-25T04:14:23;4.10;;;3.40;;
7324;SDS011;3703;48.016;7.802;2023-04-25T04:17:11;5.13;;;3.60;;
7324;SDS011;3703;48.016;7.802;2023-04-25T04:19:58;6.53;;;3.90;;
7324;SDS011;3703;48.016;7.802;2023-04-25T04:22:46;5.10;;;3.83;;
7324;SDS011;3703;48.016;7.802;2023-04-25T04:25:33;5.67;;;4.20;;
7324;SDS011;3703;48.016;7.802;2023-04-25T04:28:23;8.13;;;4.13;;
7324;SDS011;3703;48.016;7.802;2023-04-25T04:31:12;5.70;;;3.90;;
7324;SDS011;3703;48.016;7.802;2023-04-25T04:34:02;7.67;;;3.50;;
7324;SDS011;3703;48.016;7.802;2023-04-25T04:36:49;6.43;;;3.20;;
7324;SDS011;3703;48.016;7.802;2023-04-25T04:39:37;6.70;;;3.80;;
7324;SDS011;3703;48.016;7.802;2023-04-25T04:42:25;5.87;;;3.23;;
7324;SDS011;3703;48.016;7.802;2023-04-25T04:45:14;6.43;;;3.37;;
7324;SDS011;3703;48.016;7.802;2023-04-25T04:48:02;4.50;;;3.27;;
7324;SDS011;3703;48.016;7.802;2023-04-25T04:50:51;5.90;;;3.27;;
7324;SDS011;3703;48.016;7.802;2023-04-25T04:53:38;6.73;;;3.97;;
7324;SDS011;3703;48.016;7.802;2023-04-25T04:56:29;6.10;;;4.73;;
7324;SDS011;3703;48.016;7.802;2023-04-25T04:59:17;7.17;;;3.70;;
7324;SDS011;3703;48.016;7.802;2023-04-25T05:02:06;5.53;;;3.33;;
7324;SDS011;3703;48.016;7.802;2023-04-25T05:04:53;6.43;;;4.00;;
7324;SDS011;3703;48.016;7.802;2023-04-25T05:07:42;8.77;;;3.63;;
7324;SDS011;3703;48.016;7.802;2023-04-25T05:10:30;3.63;;;3.00;;
7324;SDS011;3703;48.016;7.802;2023-04-25T05:13:18;5.00;;;3.50;;
7324;SDS011;3703;48.016;7.802;2023-04-25T05:16:05;4.87;;;4.00;;
7324;SDS011;3703;48.016;7.802;2023-04-25T05:18:54;8.43;;;3.57;;
7324;SDS011;3703;48.016;7.802;2023-04-25T05:21:42;5.90;;;4.17;;
7324;SDS011;3703;48.016;7.802;2023-04-25T05:24:29;9.17;;;4.87;;
7324;SDS011;3703;48.016;7.802;2023-04-25T05:27:17;6.80;;;4.30;;
7324;SDS011;3703;48.016;7.802;2023-04-25T05:30:05;11.97;;;5.50;;
7324;SDS011;3703;48.016;7.802;2023-04-25T05:32:54;7.03;;;3.90;;
7324;SDS011;3703;48.016;7.802;2023-04-25T05:35:43;5.70;;;3.73;;
7324;SDS011;3703;48.016;7.802;2023-04-25T05:38:31;4.43;;;3.30;;
7324;SDS011;3703;48.016;7.802;2023-04-25T05:41:19;4.97;;;3.53;;
7324;SDS011;3703;48.016;7.802;2023-04-25T05:44:07;4.10;;;3.37;;
7324;SDS011;3703;48.016;7.802;2023-04-25T05:46:55;3.47;;;2.23;;
7324;SDS011;3703;48.016;7.802;2023-04-25T05:49:42;3.10;;;2.13;;
7324;SDS011;3703;48.016;7.802;2023-04-25T05:52:32;3.50;;;2.00;;
7324;SDS011;3703;48.016;7.802;2023-04-25T05:55:19;10.27;;;2.50;;
7324;SDS011;3703;48.016;7.802;2023-04-25T05:58:07;5.73;;;2.57;;
7324;SDS011;3703;48.016;7.802;2023-04-25T06:00:55;3.70;;;1.90;;
7324;SDS011;3703;48.016;7.802;2023-04-25T06:03:43;2.90;;;1.53;;
7324;SDS011;3703;48.016;7.802;2023-04-25T06:06:31;1.67;;;1.30;;
7324;SDS011;3703;48.016;7.802;2023-04-25T06:09:20;3.03;;;1.40;;
7324;SDS011;3703;48.016;7.802;2023-04-25T06:12:08;2.13;;;1.40;;
7324;SDS011;3703;48.016;7.802;2023-04-25T06:14:56;4.53;;;2.07;;
7324;SDS011;3703;48.016;7.802;2023-04-25T06:17:44;1.70;;;1.37;;
7324;SDS011;3703;48.016;7.802;2023-04-25T06:20:32;3.20;;;1.77;;
7324;SDS011;3703;48.016;7.802;2023-04-25T06:23:20;2.90;;;1.50;;
7324;SDS011;3703;48.016;7.802;2023-04-25T06:26:09;1.40;;;1.30;;
7324;SDS011;3703;48.016;7.802;2023-04-25T06:28:57;3.27;;;1.83;;
7324;SDS011;3703;48.016;7.802;2023-04-25T06:31:45;1.80;;;1.20;;
7324;SDS011;3703;48.016;7.802;2023-04-25T06:34:33;2.27;;;2.07;;
7324;SDS011;3703;48.016;7.802;2023-04-25T06:37:20;1.77;;;1.67;;
7324;SDS011;3703;48.016;7.802;2023-04-25T06:40:08;2.93;;;1.90;;
7324;SDS011;3703;48.016;7.802;2023-04-25T06:42:58;3.37;;;2.00;;
7324;SDS011;3703;48.016;7.802;2023-04-25T06:45:45;2.20;;;1.57;;
7324;SDS011;3703;48.016;7.802;2023-04-25T06:48:33;4.13;;;2.30;;
7324;SDS011;3703;48.016;7.802;2023-04-25T06:51:20;1.97;;;1.30;;
7324;SDS011;3703;48.016;7.802;2023-04-25T06:54:09;2.20;;;1.40;;
7324;SDS011;3703;48.016;7.802;2023-04-25T06:56:57;3.53;;;1.80;;
7324;SDS011;3703;48.016;7.802;2023-04-25T06:59:47;2.03;;;1.87;;
7324;SDS011;3703;48.016;7.802;2023-04-25T07:02:35;4.07;;;1.67;;
7324;SDS011;3703;48.016;7.802;2023-04-25T07:05:23;2.50;;;2.03;;
7324;SDS011;3703;48.016;7.802;2023-04-25T07:08:10;2.13;;;1.80;;
7324;SDS011;3703;48.016;7.802;2023-04-25T07:10:58;2.40;;;1.80;;
7324;SDS011;3703;48.016;7.802;2023-04-25T07:13:46;3.73;;;2.40;;
7324;SDS011;3703;48.016;7.802;2023-04-25T07:16:35;4.03;;;2.40;;
7324;SDS011;3703;48.016;7.802;2023-04-25T07:19:22;3.53;;;2.40;;
7324;SDS011;3703;48.016;7.802;2023-04-25T07:22:12;3.03;;;2.37;;
7324;SDS011;3703;48.016;7.802;2023-04-25T07:24:59;4.40;;;2.07;;
7324;SDS011;3703;48.016;7.802;2023-04-25T07:27:47;2.87;;;2.43;;
7324;SDS011;3703;48.016;7.802;2023-04-25T07:30:35;15.57;;;7.40;;
7324;SDS011;3703;48.016;7.802;2023-04-25T07:33:24;4.00;;;3.00;;
7324;SDS011;3703;48.016;7.802;2023-04-25T07:36:12;4.27;;;3.13;;
7324;SDS011;3703;48.016;7.802;2023-04-25T07:39:00;9.63;;;3.03;;
7324;SDS011;3703;48.016;7.802;2023-04-25T07:41:48;5.50;;;3.10;;
7324;SDS011;3703;48.016;7.802;2023-04-25T07:44:36;3.47;;;2.13;;
7324;SDS011;3703;48.016;7.802;2023-04-25T07:47:25;3.00;;;2.17;;
7324;SDS011;3703;48.016;7.802;2023-04-25T07:50:14;4.47;;;2.63;;
7324;SDS011;3703;48.016;7.802;2023-04-25T07:53:02;5.93;;;2.70;;
7324;SDS011;3703;48.016;7.802;2023-04-25T07:55:50;3.63;;;2.40;;
7324;SDS011;3703;48.016;7.802;2023-04-25T07:58:38;3.80;;;3.13;;
7324;SDS011;3703;48.016;7.802;2023-04-25T08:01:26;2.80;;;2.00;;
7324;SDS011;3703;48.016;7.802;2023-04-25T08:04:13;2.77;;;2.50;;
7324;SDS011;3703;48.016;7.802;2023-04-25T08:07:02;3.67;;;2.90;;
7324;SDS011;3703;48.016;7.802;2023-04-25T08:09:50;4.00;;;2.60;;
7324;SDS011;3703;48.016;7.802;2023-04-25T08:12:37;3.70;;;2.97;;
7324;SDS011;3703;48.016;7.802;2023-04-25T08:15:25;3.33;;;2.50;;
7324;SDS011;3703;48.016;7.802;2023-04-25T08:18:13;3.83;;;2.87;;
7324;SDS011;3703;48.016;7.802;2023-04-25T08:21:00;4.60;;;2.83;;
7324;SDS011;3703;48.016;7.802;2023-04-25T08:23:49;6.80;;;4.50;;
7324;SDS011;3703;48.016;7.802;2023-04-25T08:26:37;5.10;;;3.00;;
7324;SDS011;3703;48.016;7.802;2023-04-25T08:29:26;3.27;;;2.37;;
7324;SDS011;3703;48.016;7.802;2023-04-25T08:32:13;20.70;;;11.13;;
7324;SDS011;3703;48.016;7.802;2023-04-25T08:35:01;4.67;;;3.57;;
7324;SDS011;3703;48.016;7.802;2023-04-25T08:37:49;5.73;;;2.77;;
7324;SDS011;3703;48.016;7.802;2023-04-25T08:40:38;4.53;;;2.67;;
7324;SDS011;3703;48.016;7.802;2023-04-25T08:43:27;3.03;;;2.73;;
7324;SDS011;3703;48.016;7.802;2023-04-25T08:46:17;3.30;;;2.57;;
7324;SDS011;3703;48.016;7.802;2023-04-25T08:49:05;4.50;;;3.23;;
7324;SDS011;3703;48.016;7.802;2023-04-25T08:51:55;3.50;;;3.03;;
7324;SDS011;3703;48.016;7.802;2023-04-25T08:54:47;4.93;;;3.30;;
7324;SDS011;3703;48.016;7.802;2023-04-25T08:57:37;5.30;;;3.27;;
7324;SDS011;3703;48.016;7.802;2023-04-25T09:00:28;4.37;;;3.97;;
7324;SDS011;3703;48.016;7.802;2023-04-25T09:03:15;4.03;;;2.97;;
7324;SDS011;3703;48.016;7.802;2023-04-25T09:06:03;3.63;;;3.27;;
7324;SDS011;3703;48.016;7.802;2023-04-25T09:08:51;4.70;;;2.80;;
7324;SDS011;3703;48.016;7.802;2023-04-25T09:11:39;4.90;;;4.17;;
7324;SDS011;3703;48.016;7.802;2023-04-25T09:14:28;3.80;;;2.70;;
7324;SDS011;3703;48.016;7.802;2023-04-25T09:17:16;14.17;;;7.77;;
7324;SDS011;3703;48.016;7.802;2023-04-25T09:20:08;3.43;;;3.07;;
7324;SDS011;3703;48.016;7.802;2023-04-25T09:23:02;4.47;;;3.87;;
7324;SDS011;3703;48.016;7.802;2023-04-25T09:25:53;3.90;;;3.20;;
7324;SDS011;3703;48.016;7.802;2023-04-25T09:28:40;4.67;;;3.50;;
7324;SDS011;3703;48.016;7.802;2023-04-25T09:31:29;5.73;;;4.40;;
7324;SDS011;3703;48.016;7.802;2023-04-25T09:34:20;6.23;;;3.00;;
7324;SDS011;3703;48.016;7.802;2023-04-25T09:37:08;4.20;;;3.03;;
7324;SDS011;3703;48.016;7.802;2023-04-25T09:39:56;3.70;;;2.73;;
7324;SDS011;3703;48.016;7.802;2023-04-25T09:42:48;7.20;;;3.07;;
7324;SDS011;3703;48.016;7.802;2023-04-25T09:45:40;4.37;;;3.40;;
7324;SDS011;3703;48.016;7.802;2023-04-25T09:48:32;4.67;;;2.50;;
7324;SDS011;3703;48.016;7.802;2023-04-25T09:51:20;5.90;;;3.30;;
7324;SDS011;3703;48.016;7.802;2023-04-25T09:54:12;3.00;;;2.70;;
7324;SDS011;3703;48.016;7.802;2023-04-25T09:57:00;3.80;;;3.00;;
7324;SDS011;3703;48.016;7.802;2023-04-25T09:59:57;3.83;;;1.90;;
7324;SDS011;3703;48.016;7.802;2023-04-25T10:02:50;3.90;;;2.30;;
7324;SDS011;3703;48.016;7.802;2023-04-25T10:05:40;2.27;;;2.17;;
7324;SDS011;3703;48.016;7.802;2023-04-25T10:08:30;2.33;;;2.13;;
7324;SDS011;3703;48.016;7.802;2023-04-25T10:11:20;3.50;;;2.43;;
7324;SDS011;3703;48.016;7.802;2023-04-25T10:14:09;2.83;;;1.93;;
7324;SDS011;3703;48.016;7.802;2023-04-25T10:16:57;2.37;;;1.90;;
7324;SDS011;3703;48.016;7.802;2023-04-25T10:19:45;4.17;;;2.00;;
7324;SDS011;3703;48.016;7.802;2023-04-25T10:22:36;2.97;;;2.73;;
7324;SDS011;3703;48.016;7.802;2023-04-25T10:25:26;4.57;;;2.60;;
7324;SDS011;3703;48.016;7.802;2023-04-25T10:28:14;8.63;;;2.87;;
7324;SDS011;3703;48.016;7.802;2023-04-25T10:31:02;3.57;;;2.00;;
7324;SDS011;3703;48.016;7.802;2023-04-25T10:33:51;5.17;;;2.63;;
7324;SDS011;3703;48.016;7.802;2023-04-25T10:36:40;4.93;;;2.60;;
7324;SDS011;3703;48.016;7.802;2023-04-25T10:39:30;3.53;;;2.37;;
7324;SDS011;3703;48.016;7.802;2023-04-25T10:42:20;3.83;;;2.40;;
7324;SDS011;3703;48.016;7.802;2023-04-25T10:45:08;3.47;;;2.73;;
7324;SDS011;3703;48.016;7.802;2023-04-25T10:47:56;3.43;;;2.33;;
7324;SDS011;3703;48.016;7.802;2023-04-25T10:50:44;3.10;;;2.27;;
7324;SDS011;3703;48.016;7.802;2023-04-25T10:53:32;3.10;;;2.63;;
7324;SDS011;3703;48.016;7.802;2023-04-25T10:56:22;3.17;;;2.47;;
7324;SDS011;3703;48.016;7.802;2023-04-25T10:59:13;5.47;;;2.47;;
7324;SDS011;3703;48.016;7.802;2023-04-25T11:02:01;3.07;;;2.53;;
7324;SDS011;3703;48.016;7.802;2023-04-25T11:04:59;3.87;;;2.73;;
7324;SDS011;3703;48.016;7.802;2023-04-25T11:07:49;2.63;;;2.30;;
7324;SDS011;3703;48.016;7.802;2023-04-25T11:10:39;4.40;;;2.00;;
7324;SDS011;3703;48.016;7.802;2023-04-25T11:13:30;3.90;;;2.83;;
7324;SDS011;3703;48.016;7.802;2023-04-25T11:16:18;3.17;;;2.33;;
7324;SDS011;3703;48.016;7.802;2023-04-25T11:19:05;4.10;;;2.37;;
7324;SDS011;3703;48.016;7.802;2023-04-25T11:21:54;5.30;;;2.63;;
7324;SDS011;3703;48.016;7.802;2023-04-25T11:24:42;4.30;;;2.40;;
7324;SDS011;3703;48.016;7.802;2023-04-25T11:27:30;2.57;;;2.30;;
7324;SDS011;3703;48.016;7.802;2023-04-25T11:30:20;3.47;;;2.50;;
7324;SDS011;3703;48.016;7.802;2023-04-25T11:33:09;2.53;;;1.83;;
7324;SDS011;3703;48.016;7.802;2023-04-25T11:35:57;2.50;;;2.20;;
7324;SDS011;3703;48.016;7.802;2023-04-25T11:38:45;2.93;;;2.70;;
7324;SDS011;3703;48.016;7.802;2023-04-25T11:41:32;4.00;;;3.30;;
7324;SDS011;3703;48.016;7.802;2023-04-25T11:44:20;4.57;;;2.60;;
7324;SDS011;3703;48.016;7.802;2023-04-25T11:47:10;3.33;;;2.63;;
7324;SDS011;3703;48.016;7.802;2023-04-25T11:49:57;4.07;;;2.70;;
7324;SDS011;3703;48.016;7.802;2023-04-25T11:52:46;2.70;;;2.30;;
7324;SDS011;3703;48.016;7.802;2023-04-25T11:55:35;8.90;;;5.57;;
7324;SDS011;3703;48.016;7.802;2023-04-25T11:58:23;9.00;;;5.07;;
7324;SDS011;3703;48.016;7.802;2023-04-25T12:01:12;3.80;;;2.70;;
7324;SDS011;3703;48.016;7.802;2023-04-25T12:04:14;6.13;;;3.97;;
7324;SDS011;3703;48.016;7.802;2023-04-25T12:07:03;4.23;;;3.30;;
7324;SDS011;3703;48.016;7.802;2023-04-25T12:09:51;5.87;;;3.70;;
7324;SDS011;3703;48.016;7.802;2023-04-25T12:12:41;3.87;;;3.37;;
7324;SDS011;3703;48.016;7.802;2023-04-25T12:15:30;3.27;;;2.97;;
7324;SDS011;3703;48.016;7.802;2023-04-25T12:18:20;3.33;;;2.30;;
7324;SDS011;3703;48.016;7.802;2023-04-25T12:21:12;3.97;;;3.37;;
7324;SDS011;3703;48.016;7.802;2023-04-25T12:24:14;2.57;;;1.80;;
7324;SDS011;3703;48.016;7.802;2023-04-25T12:27:05;3.70;;;2.20;;
7324;SDS011;3703;48.016;7.802;2023-04-25T12:29:54;3.57;;;2.10;;
7324;SDS011;3703;48.016;7.802;2023-04-25T12:32:43;3.73;;;2.10;;
7324;SDS011;3703;48.016;7.802;2023-04-25T12:35:31;6.30;;;3.83;;
7324;SDS011;3703;48.016;7.802;2023-04-25T12:38:24;4.97;;;3.37;;
7324;SDS011;3703;48.016;7.802;2023-04-25T12:41:14;5.20;;;3.00;;
7324;SDS011;3703;48.016;7.802;2023-04-25T12:44:02;2.50;;;2.23;;
7324;SDS011;3703;48.016;7.802;2023-04-25T12:46:50;3.07;;;2.00;;
7324;SDS011;3703;48.016;7.802;2023-04-25T12:49:38;2.27;;;2.07;;
7324;SDS011;3703;48.016;7.802;2023-04-25T12:52:25;3.20;;;2.50;;
7324;SDS011;3703;48.016;7.802;2023-04-25T12:55:14;5.30;;;3.30;;
7324;SDS011;3703;48.016;7.802;2023-04-25T12:58:02;4.47;;;2.30;;
7324;SDS011;3703;48.016;7.802;2023-04-25T13:00:49;2.83;;;2.40;;
7324;SDS011;3703;48.016;7.802;2023-04-25T13:03:37;4.63;;;2.97;;
7324;SDS011;3703;48.016;7.802;2023-04-25T13:06:24;2.90;;;1.87;;
7324;SDS011;3703;48.016;7.802;2023-04-25T13:09:12;7.67;;;4.90;;
7324;SDS011;3703;48.016;7.802;2023-04-25T13:12:02;3.13;;;2.73;;
7324;SDS011;3703;48.016;7.802;2023-04-25T13:14:51;3.40;;;2.57;;
7324;SDS011;3703;48.016;7.802;2023-04-25T13:17:38;3.00;;;2.50;;
7324;SDS011;3703;48.016;7.802;2023-04-25T13:20:26;2.97;;;2.40;;
7324;SDS011;3703;48.016;7.802;2023-04-25T13:23:13;1.80;;;1.33;;
7324;SDS011;3703;48.016;7.802;2023-04-25T13:26:01;1.90;;;1.63;;
7324;SDS011;3703;48.016;7.802;2023-04-25T13:28:50;2.53;;;1.70;;
7324;SDS011;3703;48.016;7.802;2023-04-25T13:31:38;1.70;;;1.50;;
7324;SDS011;3703;48.016;7.802;2023-04-25T13:34:25;1.50;;;1.40;;
7324;SDS011;3703;48.016;7.802;2023-04-25T13:37:12;1.33;;;1.23;;
7324;SDS011;3703;48.016;7.802;2023-04-25T13:40:01;1.40;;;1.30;;
7324;SDS011;3703;48.016;7.802;2023-04-25T13:42:50;1.67;;;1.47;;
7324;SDS011;3703;48.016;7.802;2023-04-25T13:45:39;2.27;;;1.50;;
7324;SDS011;3703;48.016;7.802;2023-04-25T13:48:27;1.57;;;1.47;;
7324;SDS011;3703;48.016;7.802;2023-04-25T13:51:15;1.20;;;1.10;;
7324;SDS011;3703;48.016;7.802;2023-04-25T13:54:03;1.70;;;1.50;;
7324;SDS011;3703;48.016;7.802;2023-04-25T13:56:51;1.60;;;1.50;;
7324;SDS011;3703;48.016;7.802;2023-04-25T13:59:41;1.57;;;1.40;;
7324;SDS011;3703;48.016;7.802;2023-04-25T14:02:30;1.60;;;1.50;;
7324;SDS011;3703;48.016;7.802;2023-04-25T14:05:17;1.40;;;1.30;;
7324;SDS011;3703;48.016;7.802;2023-04-25T14:08:05;2.20;;;1.50;;
7324;SDS011;3703;48.016;7.802;2023-04-25T14:10:54;2.60;;;1.73;;
7324;SDS011;3703;48.016;7.802;2023-04-25T14:13:42;1.53;;;1.33;;
7324;SDS011;3703;48.016;7.802;2023-04-25T14:16:30;2.87;;;1.30;;
7324;SDS011;3703;48.016;7.802;2023-04-25T14:19:19;1.77;;;1.37;;
7324;SDS011;3703;48.016;7.802;2023-04-25T14:22:07;2.80;;;1.30;;
7324;SDS011;3703;48.016;7.802;2023-04-25T14:24:54;1.40;;;1.30;;
7324;SDS011;3703;48.016;7.802;2023-04-25T14:27:42;1.40;;;1.23;;
7324;SDS011;3703;48.016;7.802;2023-04-25T14:30:32;1.60;;;1.30;;
7324;SDS011;3703;48.016;7.802;2023-04-25T14:33:20;1.37;;;1.27;;
7324;SDS011;3703;48.016;7.802;2023-04-25T14:36:10;1.70;;;1.60;;
7324;SDS011;3703;48.016;7.802;2023-04-25T14:38:58;1.80;;;1.43;;
7324;SDS011;3703;48.016;7.802;2023-04-25T14:41:46;1.60;;;1.50;;
7324;SDS011;3703;48.016;7.802;2023-04-25T14:44:33;1.67;;;1.40;;
7324;SDS011;3703;48.016;7.802;2023-04-25T14:47:21;1.40;;;1.30;;
7324;SDS011;3703;48.016;7.802;2023-04-25T14:50:09;1.67;;;1.43;;
7324;SDS011;3703;48.016;7.802;2023-04-25T14:52:58;2.03;;;1.40;;
7324;SDS011;3703;48.016;7.802;2023-04-25T14:55:46;2.30;;;2.10;;
7324;SDS011;3703;48.016;7.802;2023-04-25T14:58:34;2.63;;;1.57;;
7324;SDS011;3703;48.016;7.802;2023-04-25T15:01:21;3.13;;;2.00;;
7324;SDS011;3703;48.016;7.802;2023-04-25T15:04:09;2.43;;;2.23;;
7324;SDS011;3703;48.016;7.802;2023-04-25T15:06:57;2.60;;;1.77;;
7324;SDS011;3703;48.016;7.802;2023-04-25T15:09:47;1.87;;;1.67;;
7324;SDS011;3703;48.016;7.802;2023-04-25T15:12:34;2.30;;;2.07;;
7324;SDS011;3703;48.016;7.802;2023-04-25T15:15:22;2.83;;;1.93;;
7324;SDS011;3703;48.016;7.802;2023-04-25T15:18:09;2.33;;;2.07;;
7324;SDS011;3703;48.016;7.802;2023-04-25T15:20:57;2.70;;;1.90;;
7324;SDS011;3703;48.016;7.802;2023-04-25T15:23:44;2.43;;;1.93;;
7324;SDS011;3703;48.016;7.802;2023-04-25T15:26:33;2.80;;;2.40;;
7324;SDS011;3703;48.016;7.802;2023-04-25T15:29:21;2.53;;;2.20;;
7324;SDS011;3703;48.016;7.802;2023-04-25T15:32:08;2.30;;;1.90;;
7324;SDS011;3703;48.016;7.802;2023-04-25T15:34:56;2.30;;;2.10;;
7324;SDS011;3703;48.016;7.802;2023-04-25T15:37:43;2.80;;;2.07;;
7324;SDS011;3703;48.016;7.802;2023-04-25T15:40:31;3.40;;;1.80;;
7324;SDS011;3703;48.016;7.802;2023-04-25T15:43:20;2.23;;;2.03;;
7324;SDS011;3703;48.016;7.802;2023-04-25T15:46:07;2.87;;;2.63;;
7324;SDS011;3703;48.016;7.802;2023-04-25T15:48:55;1.83;;;1.73;;
7324;SDS011;3703;48.016;7.802;2023-04-25T15:51:43;2.03;;;1.83;;
7324;SDS011;3703;48.016;7.802;2023-04-25T15:54:31;2.53;;;2.33;;
7324;SDS011;3703;48.016;7.802;2023-04-25T15:57:20;2.90;;;2.37;;
7324;SDS011;3703;48.016;7.802;2023-04-25T16:00:09;2.10;;;1.90;;
7324;SDS011;3703;48.016;7.802;2023-04-25T16:02:59;2.40;;;1.97;;
7324;SDS011;3703;48.016;7.802;2023-04-25T16:05:47;3.80;;;2.00;;
7324;SDS011;3703;48.016;7.802;2023-04-25T16:08:35;2.43;;;2.13;;
7324;SDS011;3703;48.016;7.802;2023-04-25T16:11:23;5.27;;;3.27;;
7324;SDS011;3703;48.016;7.802;2023-04-25T16:14:11;3.07;;;2.77;;
7324;SDS011;3703;48.016;7.802;2023-04-25T16:17:00;2.33;;;2.13;;
7324;SDS011;3703;48.016;7.802;2023-04-25T16:19:47;3.63;;;2.20;;
7324;SDS011;3703;48.016;7.802;2023-04-25T16:22:35;1.90;;;1.70;;
7324;SDS011;3703;48.016;7.802;2023-04-25T16:25:23;2.20;;;2.00;;
7324;SDS011;3703;48.016;7.802;2023-04-25T16:28:10;3.90;;;2.20;;
7324;SDS011;3703;48.016;7.802;2023-04-25T16:30:58;5.20;;;3.70;;
7324;SDS011;3703;48.016;7.802;2023-04-25T16:33:47;5.07;;;4.13;;
7324;SDS011;3703;48.016;7.802;2023-04-25T16:36:35;7.43;;;3.83;;
7324;SDS011;3703;48.016;7.802;2023-04-25T16:39:22;5.43;;;4.13;;
7324;SDS011;3703;48.016;7.802;2023-04-25T16:42:10;4.17;;;3.63;;
7324;SDS011;3703;48.016;7.802;2023-04-25T16:44:57;5.77;;;3.93;;
7324;SDS011;3703;48.016;7.802;2023-04-25T16:47:45;6.53;;;3.93;;
7324;SDS011;3703;48.016;7.802;2023-04-25T16:50:34;6.90;;;3.70;;
7324;SDS011;3703;48.016;7.802;2023-04-25T16:53:21;5.07;;;3.30;;
7324;SDS011;3703;48.016;7.802;2023-04-25T16:56:09;10.07;;;4.63;;
7324;SDS011;3703;48.016;7.802;2023-04-25T16:58:57;14.13;;;7.97;;
7324;SDS011;3703;48.016;7.802;2023-04-25T17:01:44;14.17;;;7.47;;
7324;SDS011;3703;48.016;7.802;2023-04-25T17:04:32;15.87;;;8.67;;
7324;SDS011;3703;48.016;7.802;2023-04-25T17:07:21;8.23;;;5.57;;
7324;SDS011;3703;48.016;7.802;2023-04-25T17:10:09;5.27;;;3.17;;
7324;SDS011;3703;48.016;7.802;2023-04-25T17:12:57;5.77;;;4.33;;
7324;SDS011;3703;48.016;7.802;2023-04-25T17:15:44;6.30;;;3.80;;
7324;SDS011;3703;48.016;7.802;2023-04-25T17:18:32;7.77;;;3.80;;
7324;SDS011;3703;48.016;7.802;2023-04-25T17:21:19;7.83;;;4.73;;
7324;SDS011;3703;48.016;7.802;2023-04-25T17:24:09;6.73;;;3.43;;
7324;SDS011;3703;48.016;7.802;2023-04-25T17:26:56;4.07;;;2.97;;